sensor_id;sensor_type;location;lat;lon;timestamp;P1;durP1;ratioP1;P2;durP2;ratioP2
59950;SDS011;45812;53.540;9.774;2022-10-16T00:01:10;11.23;;;6.15;;
59950;SDS011;45812;53.540;9.774;2022-10-16T00:03:37;10.23;;;5.35;;
59950;SDS011;45812;53.540;9.774;2022-10-16T00:06:04;12.00;;;5.78;;
59950;SDS011;45812;53.540;9.774;2022-10-16T00:08:30;10.15;;;5.13;;
59950;SDS011;45812;53.540;9.774;2022-10-16T00:11:00;12.02;;;5.28;;
59950;SDS011;45812;53.540;9.774;2022-10-16T00:13:27;10.43;;;5.43;;
59950;SDS011;45812;53.540;9.774;2022-10-16T00:15:54;9.00;;;4.93;;
59950;SDS011;45812;53.540;9.774;2022-10-16T00:18:20;6.28;;;4.47;;
59950;SDS011;45812;53.540;9.774;2022-10-16T00:20:46;9.95;;;4.60;;
59950;SDS011;45812;53.540;9.774;2022-10-16T00:23:11;5.93;;;4.10;;
59950;SDS011;45812;53.540;9.774;2022-10-16T00:25:36;6.75;;;3.85;;
59950;SDS011;45812;53.540;9.774;2022-10-16T00:28:02;9.48;;;4.07;;
59950;SDS011;45812;53.540;9.774;2022-10-16T00:30:27;6.75;;;4.15;;
59950;SDS011;45812;53.540;9.774;2022-10-16T00:32:53;12.38;;;4.20;;
59950;SDS011;45812;53.540;9.774;2022-10-16T00:35:19;8.05;;;4.03;;
59950;SDS011;45812;53.540;9.774;2022-10-16T00:37:44;6.20;;;3.90;;
59950;SDS011;45812;53.540;9.774;2022-10-16T00:40:09;6.28;;;3.38;;
59950;SDS011;45812;53.540;9.774;2022-10-16T00:42:35;10.95;;;4.60;;
59950;SDS011;45812;53.540;9.774;2022-10-16T00:45:00;6.25;;;3.65;;
59950;SDS011;45812;53.540;9.774;2022-10-16T00:47:27;10.27;;;3.90;;
59950;SDS011;45812;53.540;9.774;2022-10-16T00:49:59;6.75;;;3.78;;
59950;SDS011;45812;53.540;9.774;2022-10-16T00:52:33;6.57;;;3.60;;
59950;SDS011;45812;53.540;9.774;2022-10-16T00:54:59;6.63;;;3.17;;
59950;SDS011;45812;53.540;9.774;2022-10-16T00:57:26;8.43;;;4.43;;
59950;SDS011;45812;53.540;9.774;2022-10-16T00:59:51;4.47;;;3.60;;
59950;SDS011;45812;53.540;9.774;2022-10-16T01:02:18;9.57;;;4.00;;
59950;SDS011;45812;53.540;9.774;2022-10-16T01:04:52;7.22;;;3.88;;
59950;SDS011;45812;53.540;9.774;2022-10-16T01:07:26;7.22;;;3.53;;
59950;SDS011;45812;53.540;9.774;2022-10-16T01:12:43;4.07;;;2.97;;
59950;SDS011;45812;53.540;9.774;2022-10-16T01:18:01;3.65;;;2.80;;
59950;SDS011;45812;53.540;9.774;2022-10-16T01:20:55;8.02;;;3.10;;
59950;SDS011;45812;53.540;9.774;2022-10-16T01:28:46;6.13;;;2.92;;
59950;SDS011;45812;53.540;9.774;2022-10-16T01:31:19;4.95;;;2.30;;
59950;SDS011;45812;53.540;9.774;2022-10-16T01:34:32;5.45;;;2.90;;
59950;SDS011;45812;53.540;9.774;2022-10-16T01:36:51;8.48;;;3.38;;
59950;SDS011;45812;53.540;9.774;2022-10-16T01:39:24;4.22;;;2.15;;
59950;SDS011;45812;53.540;9.774;2022-10-16T01:41:58;3.00;;;2.42;;
59950;SDS011;45812;53.540;9.774;2022-10-16T01:46:56;6.35;;;2.90;;
59950;SDS011;45812;53.540;9.774;2022-10-16T01:49:23;5.85;;;2.70;;
59950;SDS011;45812;53.540;9.774;2022-10-16T01:51:52;5.15;;;2.70;;
59950;SDS011;45812;53.540;9.774;2022-10-16T01:54:20;4.43;;;2.60;;
59950;SDS011;45812;53.540;9.774;2022-10-16T01:56:50;4.68;;;2.50;;
59950;SDS011;45812;53.540;9.774;2022-10-16T01:59:17;3.40;;;2.35;;
59950;SDS011;45812;53.540;9.774;2022-10-16T02:01:46;2.33;;;2.00;;
59950;SDS011;45812;53.540;9.774;2022-10-16T02:04:15;4.25;;;2.40;;
59950;SDS011;45812;53.540;9.774;2022-10-16T02:06:43;6.07;;;2.40;;
59950;SDS011;45812;53.540;9.774;2022-10-16T02:09:09;4.70;;;2.78;;
59950;SDS011;45812;53.540;9.774;2022-10-16T02:11:34;4.18;;;2.38;;
59950;SDS011;45812;53.540;9.774;2022-10-16T02:14:06;7.45;;;2.42;;
59950;SDS011;45812;53.540;9.774;2022-10-16T02:16:36;3.45;;;2.33;;
59950;SDS011;45812;53.540;9.774;2022-10-16T02:19:05;2.42;;;2.20;;
59950;SDS011;45812;53.540;9.774;2022-10-16T02:21:42;2.50;;;1.65;;
59950;SDS011;45812;53.540;9.774;2022-10-16T02:27:02;3.72;;;2.10;;
59950;SDS011;45812;53.540;9.774;2022-10-16T02:29:36;2.60;;;1.95;;
59950;SDS011;45812;53.540;9.774;2022-10-16T02:32:06;7.75;;;2.15;;
59950;SDS011;45812;53.540;9.774;2022-10-16T02:34:35;4.47;;;2.33;;
59950;SDS011;45812;53.540;9.774;2022-10-16T02:37:03;3.42;;;1.95;;
59950;SDS011;45812;53.540;9.774;2022-10-16T02:39:30;4.10;;;1.70;;
59950;SDS011;45812;53.540;9.774;2022-10-16T02:41:56;3.25;;;1.55;;
59950;SDS011;45812;53.540;9.774;2022-10-16T02:44:21;7.93;;;1.98;;
59950;SDS011;45812;53.540;9.774;2022-10-16T02:46:47;3.55;;;1.80;;
59950;SDS011;45812;53.540;9.774;2022-10-16T02:49:12;3.90;;;2.03;;
59950;SDS011;45812;53.540;9.774;2022-10-16T02:51:37;5.18;;;2.22;;
59950;SDS011;45812;53.540;9.774;2022-10-16T02:54:03;6.70;;;2.00;;
59950;SDS011;45812;53.540;9.774;2022-10-16T02:56:28;4.32;;;2.25;;
59950;SDS011;45812;53.540;9.774;2022-10-16T02:58:54;4.53;;;1.85;;
59950;SDS011;45812;53.540;9.774;2022-10-16T03:01:20;5.38;;;1.70;;
59950;SDS011;45812;53.540;9.774;2022-10-16T03:03:45;3.60;;;1.83;;
59950;SDS011;45812;53.540;9.774;2022-10-16T03:06:10;5.82;;;1.90;;
59950;SDS011;45812;53.540;9.774;2022-10-16T03:08:36;2.38;;;1.80;;
59950;SDS011;45812;53.540;9.774;2022-10-16T03:11:01;6.57;;;1.75;;
59950;SDS011;45812;53.540;9.774;2022-10-16T03:13:26;2.10;;;1.90;;
59950;SDS011;45812;53.540;9.774;2022-10-16T03:15:51;2.72;;;1.50;;
59950;SDS011;45812;53.540;9.774;2022-10-16T03:18:17;1.85;;;1.67;;
59950;SDS011;45812;53.540;9.774;2022-10-16T03:20:42;5.82;;;1.77;;
59950;SDS011;45812;53.540;9.774;2022-10-16T03:23:08;2.42;;;1.90;;
59950;SDS011;45812;53.540;9.774;2022-10-16T03:25:34;3.83;;;2.65;;
59950;SDS011;45812;53.540;9.774;2022-10-16T03:27:59;2.58;;;1.60;;
59950;SDS011;45812;53.540;9.774;2022-10-16T03:30:24;2.30;;;1.88;;
59950;SDS011;45812;53.540;9.774;2022-10-16T03:32:50;7.05;;;1.92;;
59950;SDS011;45812;53.540;9.774;2022-10-16T03:35:18;7.80;;;2.22;;
59950;SDS011;45812;53.540;9.774;2022-10-16T03:37:47;3.72;;;1.90;;
59950;SDS011;45812;53.540;9.774;2022-10-16T03:40:13;4.53;;;2.53;;
59950;SDS011;45812;53.540;9.774;2022-10-16T03:42:38;4.03;;;1.60;;
59950;SDS011;45812;53.540;9.774;2022-10-16T03:45:04;3.40;;;2.38;;
59950;SDS011;45812;53.540;9.774;2022-10-16T03:47:30;5.63;;;2.58;;
59950;SDS011;45812;53.540;9.774;2022-10-16T03:49:55;2.40;;;1.85;;
59950;SDS011;45812;53.540;9.774;2022-10-16T03:52:20;5.25;;;2.33;;
59950;SDS011;45812;53.540;9.774;2022-10-16T03:54:46;3.25;;;2.00;;
59950;SDS011;45812;53.540;9.774;2022-10-16T03:57:12;4.40;;;2.03;;
59950;SDS011;45812;53.540;9.774;2022-10-16T03:59:37;3.92;;;2.03;;
59950;SDS011;45812;53.540;9.774;2022-10-16T04:02:02;5.78;;;2.38;;
59950;SDS011;45812;53.540;9.774;2022-10-16T04:04:28;3.42;;;1.90;;
59950;SDS011;45812;53.540;9.774;2022-10-16T04:06:53;4.78;;;2.00;;
59950;SDS011;45812;53.540;9.774;2022-10-16T04:09:18;5.72;;;1.67;;
59950;SDS011;45812;53.540;9.774;2022-10-16T04:11:43;2.30;;;1.60;;
59950;SDS011;45812;53.540;9.774;2022-10-16T04:14:09;2.53;;;1.77;;
59950;SDS011;45812;53.540;9.774;2022-10-16T04:16:34;5.47;;;2.13;;
59950;SDS011;45812;53.540;9.774;2022-10-16T04:18:59;3.47;;;1.90;;
59950;SDS011;45812;53.540;9.774;2022-10-16T04:21:25;6.78;;;2.15;;
59950;SDS011;45812;53.540;9.774;2022-10-16T04:23:51;7.18;;;1.83;;
59950;SDS011;45812;53.540;9.774;2022-10-16T04:26:16;5.93;;;1.90;;
59950;SDS011;45812;53.540;9.774;2022-10-16T04:28:42;2.40;;;2.22;;
59950;SDS011;45812;53.540;9.774;2022-10-16T04:31:07;5.70;;;2.53;;
59950;SDS011;45812;53.540;9.774;2022-10-16T04:33:33;3.67;;;2.08;;
59950;SDS011;45812;53.540;9.774;2022-10-16T04:35:59;4.07;;;2.40;;
59950;SDS011;45812;53.540;9.774;2022-10-16T04:38:25;3.78;;;2.22;;
59950;SDS011;45812;53.540;9.774;2022-10-16T04:40:51;3.97;;;2.03;;
59950;SDS011;45812;53.540;9.774;2022-10-16T04:43:16;3.78;;;1.85;;
59950;SDS011;45812;53.540;9.774;2022-10-16T04:45:42;3.40;;;1.95;;
59950;SDS011;45812;53.540;9.774;2022-10-16T04:48:07;3.85;;;1.63;;
59950;SDS011;45812;53.540;9.774;2022-10-16T04:50:32;2.30;;;1.67;;
59950;SDS011;45812;53.540;9.774;2022-10-16T04:52:58;4.28;;;2.67;;
59950;SDS011;45812;53.540;9.774;2022-10-16T04:55:23;9.57;;;2.72;;
59950;SDS011;45812;53.540;9.774;2022-10-16T04:57:48;7.70;;;2.25;;
59950;SDS011;45812;53.540;9.774;2022-10-16T05:00:14;4.03;;;2.03;;
59950;SDS011;45812;53.540;9.774;2022-10-16T05:02:40;5.95;;;2.95;;
59950;SDS011;45812;53.540;9.774;2022-10-16T05:05:05;3.85;;;2.25;;
59950;SDS011;45812;53.540;9.774;2022-10-16T05:07:30;5.72;;;2.67;;
59950;SDS011;45812;53.540;9.774;2022-10-16T05:09:56;5.63;;;2.88;;
59950;SDS011;45812;53.540;9.774;2022-10-16T05:12:21;5.47;;;2.92;;
59950;SDS011;45812;53.540;9.774;2022-10-16T05:14:46;6.97;;;2.80;;
59950;SDS011;45812;53.540;9.774;2022-10-16T05:17:12;4.78;;;3.20;;
59950;SDS011;45812;53.540;9.774;2022-10-16T05:19:37;7.78;;;2.65;;
59950;SDS011;45812;53.540;9.774;2022-10-16T05:22:02;7.22;;;3.53;;
59950;SDS011;45812;53.540;9.774;2022-10-16T05:24:28;4.70;;;3.15;;
59950;SDS011;45812;53.540;9.774;2022-10-16T05:26:53;6.22;;;3.10;;
59950;SDS011;45812;53.540;9.774;2022-10-16T05:29:18;5.18;;;2.85;;
59950;SDS011;45812;53.540;9.774;2022-10-16T05:31:44;5.80;;;2.97;;
59950;SDS011;45812;53.540;9.774;2022-10-16T05:34:09;9.07;;;3.50;;
59950;SDS011;45812;53.540;9.774;2022-10-16T05:36:35;5.72;;;2.63;;
59950;SDS011;45812;53.540;9.774;2022-10-16T05:39:00;7.90;;;3.40;;
59950;SDS011;45812;53.540;9.774;2022-10-16T05:41:26;6.35;;;2.95;;
59950;SDS011;45812;53.540;9.774;2022-10-16T05:43:51;4.85;;;3.15;;
59950;SDS011;45812;53.540;9.774;2022-10-16T05:46:17;8.45;;;3.50;;
59950;SDS011;45812;53.540;9.774;2022-10-16T05:48:42;8.38;;;3.30;;
59950;SDS011;45812;53.540;9.774;2022-10-16T05:51:09;6.70;;;3.35;;
59950;SDS011;45812;53.540;9.774;2022-10-16T05:53:37;5.03;;;2.92;;
59950;SDS011;45812;53.540;9.774;2022-10-16T05:56:03;7.40;;;3.05;;
59950;SDS011;45812;53.540;9.774;2022-10-16T05:58:32;5.22;;;3.70;;
59950;SDS011;45812;53.540;9.774;2022-10-16T06:01:01;4.97;;;3.40;;
59950;SDS011;45812;53.540;9.774;2022-10-16T06:03:32;5.57;;;3.25;;
59950;SDS011;45812;53.540;9.774;2022-10-16T06:05:57;2.92;;;2.65;;
59950;SDS011;45812;53.540;9.774;2022-10-16T06:08:23;4.90;;;2.63;;
59950;SDS011;45812;53.540;9.774;2022-10-16T06:10:48;10.07;;;3.80;;
59950;SDS011;45812;53.540;9.774;2022-10-16T06:13:24;12.32;;;3.33;;
59950;SDS011;45812;53.540;9.774;2022-10-16T06:15:49;10.13;;;3.28;;
59950;SDS011;45812;53.540;9.774;2022-10-16T06:18:15;4.85;;;3.03;;
59950;SDS011;45812;53.540;9.774;2022-10-16T06:20:40;4.75;;;3.17;;
59950;SDS011;45812;53.540;9.774;2022-10-16T06:23:05;10.98;;;3.60;;
59950;SDS011;45812;53.540;9.774;2022-10-16T06:25:31;6.80;;;3.15;;
59950;SDS011;45812;53.540;9.774;2022-10-16T06:27:56;8.25;;;2.97;;
59950;SDS011;45812;53.540;9.774;2022-10-16T06:30:22;5.72;;;2.67;;
59950;SDS011;45812;53.540;9.774;2022-10-16T06:32:47;5.28;;;3.13;;
59950;SDS011;45812;53.540;9.774;2022-10-16T06:35:12;6.95;;;3.50;;
59950;SDS011;45812;53.540;9.774;2022-10-16T06:37:38;12.32;;;3.60;;
59950;SDS011;45812;53.540;9.774;2022-10-16T06:40:03;6.00;;;3.03;;
59950;SDS011;45812;53.540;9.774;2022-10-16T06:42:29;7.60;;;3.95;;
59950;SDS011;45812;53.540;9.774;2022-10-16T06:44:55;7.90;;;3.53;;
59950;SDS011;45812;53.540;9.774;2022-10-16T06:47:20;6.00;;;3.50;;
59950;SDS011;45812;53.540;9.774;2022-10-16T06:49:46;7.20;;;3.15;;
59950;SDS011;45812;53.540;9.774;2022-10-16T06:52:11;8.35;;;3.15;;
59950;SDS011;45812;53.540;9.774;2022-10-16T06:54:36;6.05;;;3.42;;
59950;SDS011;45812;53.540;9.774;2022-10-16T06:57:02;8.70;;;3.45;;
59950;SDS011;45812;53.540;9.774;2022-10-16T06:59:27;9.13;;;3.40;;
59950;SDS011;45812;53.540;9.774;2022-10-16T07:01:52;5.57;;;3.50;;
59950;SDS011;45812;53.540;9.774;2022-10-16T07:04:18;10.70;;;3.55;;
59950;SDS011;45812;53.540;9.774;2022-10-16T07:06:43;6.75;;;3.50;;
59950;SDS011;45812;53.540;9.774;2022-10-16T07:09:11;8.10;;;4.35;;
59950;SDS011;45812;53.540;9.774;2022-10-16T07:11:38;5.85;;;3.15;;
59950;SDS011;45812;53.540;9.774;2022-10-16T07:14:05;6.45;;;3.88;;
59950;SDS011;45812;53.540;9.774;2022-10-16T07:16:36;5.55;;;3.10;;
59950;SDS011;45812;53.540;9.774;2022-10-16T07:19:02;8.43;;;3.85;;
59950;SDS011;45812;53.540;9.774;2022-10-16T07:21:28;5.40;;;3.22;;
59950;SDS011;45812;53.540;9.774;2022-10-16T07:23:56;7.90;;;3.97;;
59950;SDS011;45812;53.540;9.774;2022-10-16T07:26:23;7.03;;;3.50;;
59950;SDS011;45812;53.540;9.774;2022-10-16T07:28:49;6.53;;;3.40;;
59950;SDS011;45812;53.540;9.774;2022-10-16T07:31:16;7.97;;;3.67;;
59950;SDS011;45812;53.540;9.774;2022-10-16T07:33:43;7.57;;;3.80;;
59950;SDS011;45812;53.540;9.774;2022-10-16T07:36:10;4.15;;;2.92;;
59950;SDS011;45812;53.540;9.774;2022-10-16T07:38:36;9.52;;;4.07;;
59950;SDS011;45812;53.540;9.774;2022-10-16T07:41:05;6.25;;;3.55;;
59950;SDS011;45812;53.540;9.774;2022-10-16T07:43:32;7.00;;;3.30;;
59950;SDS011;45812;53.540;9.774;2022-10-16T07:45:57;4.68;;;3.53;;
59950;SDS011;45812;53.540;9.774;2022-10-16T07:48:23;6.38;;;3.30;;
59950;SDS011;45812;53.540;9.774;2022-10-16T07:50:51;9.13;;;3.35;;
59950;SDS011;45812;53.540;9.774;2022-10-16T07:53:16;5.30;;;3.35;;
59950;SDS011;45812;53.540;9.774;2022-10-16T07:55:42;5.53;;;2.92;;
59950;SDS011;45812;53.540;9.774;2022-10-16T07:58:07;6.88;;;3.33;;
59950;SDS011;45812;53.540;9.774;2022-10-16T08:00:33;7.95;;;3.72;;
59950;SDS011;45812;53.540;9.774;2022-10-16T08:02:58;6.30;;;3.05;;
59950;SDS011;45812;53.540;9.774;2022-10-16T08:05:25;7.07;;;3.90;;
59950;SDS011;45812;53.540;9.774;2022-10-16T08:07:52;8.60;;;3.45;;
59950;SDS011;45812;53.540;9.774;2022-10-16T08:10:18;5.63;;;3.97;;
59950;SDS011;45812;53.540;9.774;2022-10-16T08:12:44;10.52;;;4.25;;
59950;SDS011;45812;53.540;9.774;2022-10-16T08:15:10;6.00;;;2.83;;
59950;SDS011;45812;53.540;9.774;2022-10-16T08:17:35;5.82;;;3.30;;
59950;SDS011;45812;53.540;9.774;2022-10-16T08:20:01;9.27;;;3.53;;
59950;SDS011;45812;53.540;9.774;2022-10-16T08:22:27;7.18;;;3.33;;
59950;SDS011;45812;53.540;9.774;2022-10-16T08:24:52;5.15;;;2.53;;
59950;SDS011;45812;53.540;9.774;2022-10-16T08:27:18;5.57;;;2.90;;
59950;SDS011;45812;53.540;9.774;2022-10-16T08:29:43;6.55;;;3.28;;
59950;SDS011;45812;53.540;9.774;2022-10-16T08:32:08;2.85;;;2.50;;
59950;SDS011;45812;53.540;9.774;2022-10-16T08:34:33;5.25;;;2.95;;
59950;SDS011;45812;53.540;9.774;2022-10-16T08:36:59;3.78;;;2.78;;
59950;SDS011;45812;53.540;9.774;2022-10-16T08:39:24;3.30;;;2.80;;
59950;SDS011;45812;53.540;9.774;2022-10-16T08:47:45;9.32;;;3.08;;
59950;SDS011;45812;53.540;9.774;2022-10-16T08:50:18;6.28;;;2.92;;
59950;SDS011;45812;53.540;9.774;2022-10-16T08:52:49;4.88;;;2.55;;
59950;SDS011;45812;53.540;9.774;2022-10-16T08:55:23;5.07;;;2.47;;
59950;SDS011;45812;53.540;9.774;2022-10-16T08:57:55;4.20;;;2.40;;
59950;SDS011;45812;53.540;9.774;2022-10-16T09:00:21;4.15;;;2.65;;
59950;SDS011;45812;53.540;9.774;2022-10-16T09:08:11;5.68;;;2.15;;
59950;SDS011;45812;53.540;9.774;2022-10-16T09:11:03;4.30;;;2.13;;
59950;SDS011;45812;53.540;9.774;2022-10-16T09:13:50;4.38;;;1.77;;
59950;SDS011;45812;53.540;9.774;2022-10-16T09:21:37;4.30;;;2.10;;
59950;SDS011;45812;53.540;9.774;2022-10-16T09:24:12;4.68;;;2.00;;
59950;SDS011;45812;53.540;9.774;2022-10-16T09:26:40;3.42;;;2.30;;
59950;SDS011;45812;53.540;9.774;2022-10-16T09:29:06;3.55;;;1.55;;
59950;SDS011;45812;53.540;9.774;2022-10-16T09:31:31;3.60;;;2.10;;
59950;SDS011;45812;53.540;9.774;2022-10-16T09:34:00;8.73;;;2.80;;
59950;SDS011;45812;53.540;9.774;2022-10-16T09:36:35;4.35;;;2.03;;
59950;SDS011;45812;53.540;9.774;2022-10-16T09:39:08;1.92;;;1.45;;
59950;SDS011;45812;53.540;9.774;2022-10-16T09:41:37;17.58;;;3.47;;
59950;SDS011;45812;53.540;9.774;2022-10-16T09:44:06;6.80;;;2.10;;
59950;SDS011;45812;53.540;9.774;2022-10-16T09:46:44;4.32;;;1.70;;
59950;SDS011;45812;53.540;9.774;2022-10-16T09:49:22;5.55;;;1.75;;
59950;SDS011;45812;53.540;9.774;2022-10-16T09:51:49;1.63;;;1.50;;
59950;SDS011;45812;53.540;9.774;2022-10-16T09:54:17;6.00;;;1.70;;
59950;SDS011;45812;53.540;9.774;2022-10-16T09:56:43;4.00;;;1.77;;
59950;SDS011;45812;53.540;9.774;2022-10-16T09:59:14;3.40;;;1.50;;
59950;SDS011;45812;53.540;9.774;2022-10-16T10:04:09;1.63;;;1.40;;
59950;SDS011;45812;53.540;9.774;2022-10-16T10:06:36;3.33;;;1.45;;
59950;SDS011;45812;53.540;9.774;2022-10-16T10:09:26;3.22;;;2.00;;
59950;SDS011;45812;53.540;9.774;2022-10-16T10:12:04;4.38;;;1.67;;
59950;SDS011;45812;53.540;9.774;2022-10-16T10:19:36;10.10;;;2.57;;
59950;SDS011;45812;53.540;9.774;2022-10-16T10:25:01;7.68;;;1.83;;
59950;SDS011;45812;53.540;9.774;2022-10-16T10:30:42;2.72;;;1.45;;
59950;SDS011;45812;53.540;9.774;2022-10-16T10:33:11;7.70;;;1.65;;
59950;SDS011;45812;53.540;9.774;2022-10-16T10:35:54;2.83;;;1.60;;
59950;SDS011;45812;53.540;9.774;2022-10-16T10:38:30;5.45;;;2.00;;
59950;SDS011;45812;53.540;9.774;2022-10-16T10:55:03;2.63;;;1.10;;
59950;SDS011;45812;53.540;9.774;2022-10-16T11:00:50;2.50;;;1.30;;
59950;SDS011;45812;53.540;9.774;2022-10-16T11:03:35;3.75;;;1.10;;
59950;SDS011;45812;53.540;9.774;2022-10-16T11:06:25;2.28;;;0.65;;
59950;SDS011;45812;53.540;9.774;2022-10-16T11:09:00;1.05;;;0.85;;
59950;SDS011;45812;53.540;9.774;2022-10-16T11:11:40;3.70;;;1.17;;
59950;SDS011;45812;53.540;9.774;2022-10-16T11:16:43;6.10;;;1.08;;
59950;SDS011;45812;53.540;9.774;2022-10-16T11:22:00;4.82;;;0.90;;
59950;SDS011;45812;53.540;9.774;2022-10-16T11:27:34;3.17;;;1.05;;
59950;SDS011;45812;53.540;9.774;2022-10-16T11:30:06;3.25;;;0.70;;
59950;SDS011;45812;53.540;9.774;2022-10-16T11:32:53;1.60;;;0.88;;
59950;SDS011;45812;53.540;9.774;2022-10-16T11:35:39;5.93;;;1.35;;
59950;SDS011;45812;53.540;9.774;2022-10-16T11:38:14;3.45;;;1.02;;
59950;SDS011;45812;53.540;9.774;2022-10-16T11:40:52;4.55;;;1.40;;
59950;SDS011;45812;53.540;9.774;2022-10-16T11:43:32;1.17;;;0.68;;
59950;SDS011;45812;53.540;9.774;2022-10-16T11:46:04;7.95;;;1.13;;
59950;SDS011;45812;53.540;9.774;2022-10-16T11:48:50;1.85;;;0.80;;
59950;SDS011;45812;53.540;9.774;2022-10-16T11:51:36;2.67;;;1.02;;
59950;SDS011;45812;53.540;9.774;2022-10-16T11:54:13;7.47;;;1.67;;
59950;SDS011;45812;53.540;9.774;2022-10-16T11:56:46;5.00;;;1.15;;
59950;SDS011;45812;53.540;9.774;2022-10-16T12:01:57;7.53;;;2.10;;
59950;SDS011;45812;53.540;9.774;2022-10-16T12:04:46;3.72;;;0.95;;
59950;SDS011;45812;53.540;9.774;2022-10-16T12:07:19;3.05;;;0.88;;
59950;SDS011;45812;53.540;9.774;2022-10-16T12:09:50;3.30;;;0.95;;
59950;SDS011;45812;53.540;9.774;2022-10-16T12:15:01;5.13;;;1.13;;
59950;SDS011;45812;53.540;9.774;2022-10-16T12:17:36;4.85;;;0.90;;
59950;SDS011;45812;53.540;9.774;2022-10-16T12:22:40;4.70;;;1.15;;
59950;SDS011;45812;53.540;9.774;2022-10-16T12:30:32;5.63;;;1.20;;
59950;SDS011;45812;53.540;9.774;2022-10-16T12:33:22;5.53;;;1.52;;
59950;SDS011;45812;53.540;9.774;2022-10-16T12:35:47;3.30;;;1.17;;
59950;SDS011;45812;53.540;9.774;2022-10-16T12:38:17;6.28;;;1.17;;
59950;SDS011;45812;53.540;9.774;2022-10-16T12:40:44;4.43;;;1.67;;
59950;SDS011;45812;53.540;9.774;2022-10-16T12:48:34;4.43;;;1.55;;
59950;SDS011;45812;53.540;9.774;2022-10-16T12:51:11;3.55;;;0.98;;
59950;SDS011;45812;53.540;9.774;2022-10-16T12:54:09;6.07;;;1.60;;
59950;SDS011;45812;53.540;9.774;2022-10-16T13:11:44;3.88;;;1.25;;
59950;SDS011;45812;53.540;9.774;2022-10-16T13:14:47;3.42;;;1.25;;
59950;SDS011;45812;53.540;9.774;2022-10-16T13:20:29;6.70;;;1.60;;
59950;SDS011;45812;53.540;9.774;2022-10-16T13:25:50;7.40;;;1.80;;
59950;SDS011;45812;53.540;9.774;2022-10-16T13:28:34;2.80;;;1.45;;
59950;SDS011;45812;53.540;9.774;2022-10-16T13:31:02;4.63;;;1.45;;
59950;SDS011;45812;53.540;9.774;2022-10-16T13:36:24;6.15;;;1.00;;
59950;SDS011;45812;53.540;9.774;2022-10-16T13:39:09;2.60;;;1.45;;
59950;SDS011;45812;53.540;9.774;2022-10-16T13:41:37;1.33;;;1.05;;
59950;SDS011;45812;53.540;9.774;2022-10-16T13:44:03;4.18;;;1.20;;
59950;SDS011;45812;53.540;9.774;2022-10-16T13:46:29;1.63;;;1.45;;
59950;SDS011;45812;53.540;9.774;2022-10-16T13:49:00;7.57;;;1.42;;
59950;SDS011;45812;53.540;9.774;2022-10-16T13:51:27;5.95;;;1.50;;
59950;SDS011;45812;53.540;9.774;2022-10-16T13:53:54;4.38;;;1.27;;
59950;SDS011;45812;53.540;9.774;2022-10-16T13:56:22;4.53;;;1.70;;
59950;SDS011;45812;53.540;9.774;2022-10-16T14:01:35;3.67;;;0.73;;
59950;SDS011;45812;53.540;9.774;2022-10-16T14:04:10;6.63;;;1.20;;
59950;SDS011;45812;53.540;9.774;2022-10-16T14:06:45;5.25;;;1.02;;
59950;SDS011;45812;53.540;9.774;2022-10-16T14:09:20;3.10;;;0.82;;
59950;SDS011;45812;53.540;9.774;2022-10-16T14:11:50;6.30;;;1.55;;
59950;SDS011;45812;53.540;9.774;2022-10-16T14:14:21;3.28;;;1.10;;
59950;SDS011;45812;53.540;9.774;2022-10-16T14:16:47;7.38;;;1.23;;
59950;SDS011;45812;53.540;9.774;2022-10-16T14:19:15;4.03;;;1.30;;
59950;SDS011;45812;53.540;9.774;2022-10-16T14:21:45;6.87;;;1.07;;
59950;SDS011;45812;53.540;9.774;2022-10-16T14:24:11;8.30;;;1.27;;
59950;SDS011;45812;53.540;9.774;2022-10-16T14:26:44;2.30;;;1.13;;
59950;SDS011;45812;53.540;9.774;2022-10-16T14:29:11;5.85;;;1.58;;
59950;SDS011;45812;53.540;9.774;2022-10-16T14:31:42;5.15;;;1.42;;
59950;SDS011;45812;53.540;9.774;2022-10-16T14:37:06;4.72;;;1.08;;
59950;SDS011;45812;53.540;9.774;2022-10-16T14:39:39;3.10;;;1.10;;
59950;SDS011;45812;53.540;9.774;2022-10-16T14:42:11;6.93;;;1.42;;
59950;SDS011;45812;53.540;9.774;2022-10-16T14:44:41;4.72;;;1.25;;
59950;SDS011;45812;53.540;9.774;2022-10-16T14:47:07;11.90;;;1.73;;
59950;SDS011;45812;53.540;9.774;2022-10-16T14:49:34;5.75;;;1.40;;
59950;SDS011;45812;53.540;9.774;2022-10-16T14:51:59;7.88;;;1.10;;
59950;SDS011;45812;53.540;9.774;2022-10-16T14:54:26;4.88;;;1.02;;
59950;SDS011;45812;53.540;9.774;2022-10-16T14:56:53;3.55;;;1.20;;
59950;SDS011;45812;53.540;9.774;2022-10-16T14:59:39;5.13;;;1.42;;
59950;SDS011;45812;53.540;9.774;2022-10-16T15:02:20;5.53;;;1.38;;
59950;SDS011;45812;53.540;9.774;2022-10-16T15:04:47;7.10;;;1.58;;
59950;SDS011;45812;53.540;9.774;2022-10-16T15:07:13;6.97;;;1.17;;
59950;SDS011;45812;53.540;9.774;2022-10-16T15:09:38;2.63;;;1.10;;
59950;SDS011;45812;53.540;9.774;2022-10-16T15:12:04;5.85;;;1.27;;
59950;SDS011;45812;53.540;9.774;2022-10-16T15:14:29;8.35;;;1.90;;
59950;SDS011;45812;53.540;9.774;2022-10-16T15:16:54;8.63;;;1.38;;
59950;SDS011;45812;53.540;9.774;2022-10-16T15:19:20;7.30;;;1.33;;
59950;SDS011;45812;53.540;9.774;2022-10-16T15:21:45;10.93;;;2.05;;
59950;SDS011;45812;53.540;9.774;2022-10-16T15:24:14;2.85;;;1.77;;
59950;SDS011;45812;53.540;9.774;2022-10-16T15:26:39;6.10;;;1.33;;
59950;SDS011;45812;53.540;9.774;2022-10-16T15:29:05;1.85;;;1.00;;
59950;SDS011;45812;53.540;9.774;2022-10-16T15:31:30;8.27;;;1.73;;
59950;SDS011;45812;53.540;9.774;2022-10-16T15:33:56;8.48;;;1.05;;
59950;SDS011;45812;53.540;9.774;2022-10-16T15:36:30;2.75;;;1.08;;
59950;SDS011;45812;53.540;9.774;2022-10-16T15:39:05;2.90;;;1.20;;
59950;SDS011;45812;53.540;9.774;2022-10-16T15:41:36;4.97;;;1.42;;
59950;SDS011;45812;53.540;9.774;2022-10-16T15:44:02;3.58;;;0.80;;
59950;SDS011;45812;53.540;9.774;2022-10-16T15:46:27;9.13;;;1.83;;
59950;SDS011;45812;53.540;9.774;2022-10-16T15:48:55;8.25;;;1.65;;
59950;SDS011;45812;53.540;9.774;2022-10-16T15:51:22;3.75;;;1.02;;
59950;SDS011;45812;53.540;9.774;2022-10-16T15:53:48;4.10;;;1.20;;
59950;SDS011;45812;53.540;9.774;2022-10-16T15:56:15;5.97;;;1.65;;
59950;SDS011;45812;53.540;9.774;2022-10-16T15:58:41;7.47;;;1.58;;
59950;SDS011;45812;53.540;9.774;2022-10-16T16:01:07;7.10;;;1.23;;
59950;SDS011;45812;53.540;9.774;2022-10-16T16:03:34;5.20;;;1.30;;
59950;SDS011;45812;53.540;9.774;2022-10-16T16:06:04;4.97;;;1.67;;
59950;SDS011;45812;53.540;9.774;2022-10-16T16:08:30;4.25;;;1.20;;
59950;SDS011;45812;53.540;9.774;2022-10-16T16:11:01;4.18;;;1.60;;
59950;SDS011;45812;53.540;9.774;2022-10-16T16:13:28;5.72;;;1.77;;
59950;SDS011;45812;53.540;9.774;2022-10-16T16:15:54;6.93;;;1.75;;
59950;SDS011;45812;53.540;9.774;2022-10-16T16:18:19;12.35;;;3.47;;
59950;SDS011;45812;53.540;9.774;2022-10-16T16:20:45;7.13;;;1.52;;
59950;SDS011;45812;53.540;9.774;2022-10-16T16:23:10;9.20;;;3.13;;
59950;SDS011;45812;53.540;9.774;2022-10-16T16:25:35;6.43;;;1.33;;
59950;SDS011;45812;53.540;9.774;2022-10-16T16:28:01;7.38;;;2.38;;
59950;SDS011;45812;53.540;9.774;2022-10-16T16:30:26;3.75;;;1.33;;
59950;SDS011;45812;53.540;9.774;2022-10-16T16:32:51;3.05;;;1.30;;
59950;SDS011;45812;53.540;9.774;2022-10-16T16:35:17;4.20;;;1.60;;
59950;SDS011;45812;53.540;9.774;2022-10-16T16:37:42;4.13;;;1.30;;
59950;SDS011;45812;53.540;9.774;2022-10-16T16:40:07;5.07;;;1.38;;
59950;SDS011;45812;53.540;9.774;2022-10-16T16:42:33;5.82;;;1.40;;
59950;SDS011;45812;53.540;9.774;2022-10-16T16:44:58;8.02;;;1.88;;
59950;SDS011;45812;53.540;9.774;2022-10-16T16:47:23;3.65;;;1.20;;
59950;SDS011;45812;53.540;9.774;2022-10-16T16:49:49;5.45;;;1.35;;
59950;SDS011;45812;53.540;9.774;2022-10-16T16:52:14;5.85;;;1.88;;
59950;SDS011;45812;53.540;9.774;2022-10-16T16:54:40;5.18;;;1.13;;
59950;SDS011;45812;53.540;9.774;2022-10-16T16:57:05;5.05;;;1.65;;